createdAt,value
2023-04-10T00:01:52.903Z,1.95
2023-04-10T00:06:56.135Z,1.97
2023-04-10T00:12:00.796Z,1.91
2023-04-10T00:17:03.845Z,1.85
2023-04-10T00:22:07.027Z,1.82
2023-04-10T00:27:11.802Z,1.85
2023-04-10T00:32:15.594Z,1.73
2023-04-10T00:37:18.927Z,1.60
2023-04-10T00:42:23.576Z,1.59
2023-04-10T00:47:27.425Z,1.55
2023-04-10T00:52:30.664Z,1.45
2023-04-10T00:57:35.388Z,1.52
2023-04-10T01:02:39.547Z,1.33
2023-04-10T01:07:55.621Z,1.19
2023-04-10T01:13:09.953Z,1.23
2023-04-10T01:18:20.911Z,1.31
2023-04-10T01:23:48.868Z,1.22
2023-04-10T01:29:01.663Z,1.01
2023-04-10T01:34:09.753Z,1.11
2023-04-10T01:39:13.806Z,0.95
2023-04-10T01:44:22.635Z,0.75
2023-04-10T01:49:29.300Z,0.85
2023-04-10T01:54:39.851Z,0.88
2023-04-10T01:59:45.687Z,0.87
2023-04-10T02:04:51.780Z,0.89
2023-04-10T02:10:01.060Z,0.84
2023-04-10T02:15:08.700Z,0.70
2023-04-10T02:20:12.821Z,0.79
2023-04-10T02:25:17.177Z,0.75
2023-04-10T02:30:22.211Z,0.69
2023-04-10T02:35:26.354Z,0.60
2023-04-10T02:40:29.783Z,0.47
2023-04-10T02:45:47.315Z,0.39
2023-04-10T02:50:59.902Z,0.31
2023-04-10T02:56:06.651Z,0.08
2023-04-10T03:01:11.339Z,0.26
2023-04-10T03:06:27.298Z,0.26
2023-04-10T03:11:32.044Z,0.18
2023-04-10T03:16:36.855Z,0.25
2023-04-10T03:21:40.731Z,0.14
2023-04-10T03:26:43.764Z,0.13
2023-04-10T03:31:48.428Z,0.08
2023-04-10T03:36:52.894Z,0.04
2023-04-10T03:41:56.171Z,0.01
2023-04-10T03:47:02.599Z,-0.09
2023-04-10T03:52:07.501Z,-0.16
2023-04-10T03:57:11.199Z,-0.24
2023-04-10T04:02:16.023Z,-0.12
2023-04-10T04:07:20.609Z,-0.13
2023-04-10T04:12:34.831Z,-0.13
2023-04-10T04:17:42.598Z,-0.13
2023-04-10T04:22:46.388Z,-0.11
2023-04-10T04:28:07.898Z,-0.19
2023-04-10T04:33:38.295Z,-0.18
2023-04-10T04:39:01.250Z,-0.12
2023-04-10T04:44:15.467Z,-0.08
2023-04-10T04:49:23.084Z,-0.09
2023-04-10T04:54:44.668Z,0.07
2023-04-10T04:59:50.695Z,-0.08
2023-04-10T05:05:15.871Z,-0.02
2023-04-10T05:10:28.340Z,0.24
2023-04-10T05:15:51.303Z,0.22
2023-04-10T05:21:14.267Z,0.41
2023-04-10T05:26:36.120Z,0.65
2023-04-10T05:31:57.939Z,0.85
2023-04-10T05:37:24.100Z,1.08
2023-04-10T05:42:53.682Z,1.25
2023-04-10T05:48:19.908Z,1.30
2023-04-10T05:53:54.067Z,1.51
2023-04-10T05:59:04.442Z,1.86
2023-04-10T06:04:26.382Z,1.91
2023-04-10T06:09:34.437Z,3.00
2023-04-10T06:14:37.751Z,4.09
2023-04-10T06:19:41.689Z,4.37
2023-04-10T06:24:47.052Z,5.02
2023-04-10T06:29:53.623Z,5.26
2023-04-10T06:34:59.739Z,5.87
2023-04-10T06:40:07.405Z,6.83
2023-04-10T06:45:11.431Z,8.33
2023-04-10T06:50:26.582Z,10.82
2023-04-10T06:55:31.802Z,11.77
2023-04-10T07:00:35.106Z,12.58
2023-04-10T07:05:40.128Z,13.10
2023-04-10T07:10:46.680Z,13.82
2023-04-10T07:15:49.874Z,13.68
2023-04-10T07:20:54.144Z,13.22
2023-04-10T07:25:58.914Z,13.73
2023-04-10T07:31:02.283Z,13.46
2023-04-10T07:36:06.176Z,13.83
2023-04-10T07:41:12.213Z,14.01
2023-04-10T07:46:15.908Z,14.31
2023-04-10T07:51:19.173Z,14.38
2023-04-10T07:56:23.872Z,14.09
2023-04-10T08:01:27.533Z,13.81
2023-04-10T08:06:31.730Z,13.79
2023-04-10T08:11:38.264Z,13.98
2023-04-10T08:16:42.008Z,13.83
2023-04-10T08:21:45.362Z,14.52
2023-04-10T08:26:50.104Z,14.27
2023-04-10T08:31:54.697Z,14.64
2023-04-10T08:36:58.630Z,14.64
2023-04-10T08:42:08.001Z,14.66
2023-04-10T08:47:11.773Z,14.70
2023-04-10T08:52:17.400Z,14.91
2023-04-10T08:57:22.601Z,15.04
2023-04-10T09:02:25.976Z,15.72
2023-04-10T09:07:29.490Z,15.77
2023-04-10T09:12:44.950Z,16.21
2023-04-10T09:17:59.187Z,16.11
2023-04-10T09:23:02.439Z,15.91
2023-04-10T09:28:08.884Z,16.13
2023-04-10T09:33:23.692Z,15.84
2023-04-10T09:38:27.046Z,16.04
2023-04-10T09:43:31.591Z,16.64
2023-04-10T09:48:34.683Z,16.94
2023-04-10T09:53:50.068Z,17.03
2023-04-10T09:58:58.000Z,17.24
2023-04-10T10:04:03.140Z,17.00
2023-04-10T10:09:07.054Z,16.43
2023-04-10T10:14:19.886Z,17.53
2023-04-10T10:19:28.495Z,16.94
2023-04-10T10:24:34.515Z,16.64
2023-04-10T10:29:41.202Z,17.16
2023-04-10T10:34:45.975Z,17.67
2023-04-10T10:39:58.948Z,17.61
2023-04-10T10:45:14.617Z,17.41
2023-04-10T10:50:18.138Z,17.99
2023-04-10T10:55:38.028Z,17.86
2023-04-10T11:01:12.773Z,17.80
2023-04-10T11:06:19.423Z,17.53
2023-04-10T11:11:24.083Z,17.97
2023-04-10T11:22:15.303Z,18.60
2023-04-10T11:27:39.958Z,18.47
2023-04-10T11:32:44.192Z,17.70
2023-04-10T11:37:49.130Z,17.54
2023-04-10T11:42:52.475Z,18.22
2023-04-10T11:47:56.201Z,18.65
2023-04-10T11:53:00.822Z,18.24
2023-04-10T11:58:03.968Z,18.75
2023-04-10T12:03:07.482Z,18.40
2023-04-10T12:08:12.078Z,18.13
2023-04-10T12:13:26.703Z,18.41
2023-04-10T12:18:31.326Z,18.45
2023-04-10T12:23:39.197Z,18.29
2023-04-10T12:28:43.929Z,18.31
2023-04-10T12:33:47.625Z,18.35
2023-04-10T12:38:52.836Z,18.59
2023-04-10T12:44:08.991Z,18.21
2023-04-10T12:49:14.334Z,18.34
2023-04-10T12:54:30.901Z,17.96
2023-04-10T12:59:34.431Z,18.52
2023-04-10T13:04:37.792Z,18.53
2023-04-10T13:09:42.855Z,18.69
2023-04-10T13:14:46.224Z,18.31
2023-04-10T13:19:49.592Z,18.25
2023-04-10T13:24:54.434Z,16.93
2023-04-10T13:29:57.679Z,17.65
2023-04-10T13:35:00.828Z,17.78
2023-04-10T13:40:06.389Z,17.99
2023-04-10T13:45:10.442Z,18.12
2023-04-10T13:50:13.705Z,18.12
2023-04-10T13:55:18.495Z,17.86
2023-04-10T14:00:22.108Z,17.53
2023-04-10T14:05:25.378Z,17.73
2023-04-10T14:10:30.024Z,17.81
2023-04-10T14:15:33.320Z,17.05
2023-04-10T14:20:36.499Z,16.71
2023-04-10T14:25:41.001Z,16.12
2023-04-10T14:30:44.094Z,16.14
2023-04-10T14:35:48.317Z,16.21
2023-04-10T14:40:53.919Z,16.67
2023-04-10T14:45:57.024Z,17.05
2023-04-10T14:51:01.291Z,17.34
2023-04-10T14:56:12.856Z,17.19
2023-04-10T15:01:16.347Z,16.78
2023-04-10T15:06:19.681Z,16.81
2023-04-10T15:11:24.224Z,16.95
2023-04-10T15:16:27.542Z,16.90
2023-04-10T15:21:31.517Z,16.40
2023-04-10T15:26:37.154Z,16.28
2023-04-10T15:31:40.323Z,16.36
2023-04-10T15:36:43.522Z,16.22
2023-04-10T15:41:50.028Z,16.15
2023-04-10T15:46:53.534Z,15.85
2023-04-10T15:51:56.707Z,16.13
2023-04-10T15:57:01.830Z,16.25
2023-04-10T16:02:05.158Z,16.35
2023-04-10T16:07:08.332Z,16.00
2023-04-10T16:12:13.963Z,15.80
2023-04-10T16:17:17.095Z,15.67
2023-04-10T16:22:20.418Z,15.50
2023-04-10T16:27:25.212Z,15.57
2023-04-10T16:32:30.377Z,15.53
2023-04-10T16:37:34.520Z,15.28
2023-04-10T16:42:39.272Z,15.29
2023-04-10T16:47:44.495Z,15.02
2023-04-10T16:52:47.692Z,14.87
2023-04-10T16:57:52.206Z,14.85
2023-04-10T17:02:55.376Z,14.39
2023-04-10T17:07:59.120Z,14.50
2023-04-10T17:13:04.282Z,14.35
2023-04-10T17:18:07.577Z,14.20
2023-04-10T17:23:11.202Z,14.16
2023-04-10T17:28:15.995Z,14.05
2023-04-10T17:33:19.054Z,13.87
2023-04-10T17:38:22.302Z,13.80
2023-04-10T17:43:26.841Z,13.68
2023-04-10T17:48:31.650Z,13.43
2023-04-10T17:53:35.424Z,13.23
2023-04-10T17:58:41.946Z,13.17
2023-04-10T18:03:45.330Z,12.98
2023-04-10T18:08:48.480Z,12.61
2023-04-10T18:13:55.990Z,12.66
2023-04-10T18:19:01.763Z,12.57
2023-04-10T18:24:05.596Z,12.45
2023-04-10T18:29:10.335Z,12.50
2023-04-10T18:34:13.886Z,12.42
2023-04-10T18:39:17.595Z,12.40
2023-04-10T18:44:29.576Z,12.47
2023-04-10T18:49:35.445Z,12.34
2023-04-10T18:54:44.210Z,12.24
2023-04-10T18:59:49.047Z,12.12
2023-04-10T19:04:59.404Z,12.31
2023-04-10T19:10:02.793Z,12.37
2023-04-10T19:15:13.480Z,12.52
2023-04-10T19:20:49.230Z,12.58
2023-04-10T19:25:43.776Z,12.18
2023-04-10T19:30:50.112Z,12.33
2023-04-10T19:35:55.605Z,12.30
2023-04-10T19:41:00.791Z,12.25
2023-04-10T19:46:05.820Z,12.28
2023-04-10T19:51:10.120Z,12.25
2023-04-10T19:56:13.489Z,12.31
2023-04-10T20:01:24.295Z,12.18
2023-04-10T20:06:31.825Z,12.23
2023-04-10T20:11:35.272Z,12.19
2023-04-10T20:16:41.188Z,12.16
2023-04-10T20:21:45.121Z,12.29
2023-04-10T20:26:51.029Z,12.19
2023-04-10T20:31:56.026Z,12.23
2023-04-10T20:37:02.160Z,12.30
2023-04-10T20:42:08.806Z,12.16
2023-04-10T20:47:14.786Z,12.17
2023-04-10T20:52:18.115Z,12.04
2023-04-10T20:57:22.124Z,12.08
2023-04-10T21:02:27.112Z,12.03
2023-04-10T21:07:30.682Z,11.96
2023-04-10T21:12:33.817Z,11.89
2023-04-10T21:17:38.482Z,11.88
2023-04-10T21:22:41.599Z,11.90
2023-04-10T21:27:44.757Z,11.76
2023-04-10T21:32:49.366Z,11.81
2023-04-10T21:37:58.009Z,11.65
2023-04-10T21:43:02.211Z,11.72
2023-04-10T21:48:07.187Z,11.75
2023-04-10T21:53:10.502Z,11.68
2023-04-10T21:58:13.746Z,11.64
2023-04-10T22:03:20.448Z,11.60
2023-04-10T22:08:23.898Z,11.56
2023-04-10T22:13:30.958Z,11.52
2023-04-10T22:18:36.053Z,11.65
2023-04-10T22:23:39.227Z,11.62
2023-04-10T22:28:42.317Z,11.60
2023-04-10T22:33:49.274Z,11.55
2023-04-10T22:38:52.877Z,11.65
2023-04-10T22:43:56.256Z,11.43
2023-04-10T22:49:00.768Z,11.43
2023-04-10T22:54:03.877Z,11.32
2023-04-10T22:59:07.143Z,11.28
2023-04-10T23:04:11.803Z,11.30
2023-04-10T23:09:15.059Z,11.35
2023-04-10T23:14:18.109Z,11.29
2023-04-10T23:19:22.705Z,11.29
2023-04-10T23:24:26.006Z,11.31
2023-04-10T23:29:29.083Z,11.30
2023-04-10T23:34:33.564Z,11.34
2023-04-10T23:39:36.780Z,11.08
2023-04-10T23:44:39.905Z,11.23
2023-04-10T23:49:44.562Z,11.09
2023-04-10T23:54:47.877Z,10.90
2023-04-10T23:59:51.765Z,11.03
